createdAt,value
2022-12-18T00:01:06.819Z,34.80
2022-12-18T00:03:35.137Z,35.77
2022-12-18T00:06:03.772Z,35.42
2022-12-18T00:08:31.508Z,34.50
2022-12-18T00:11:07.050Z,32.93
2022-12-18T00:13:35.799Z,37.93
2022-12-18T00:18:34.204Z,34.83
2022-12-18T00:21:02.714Z,32.05
2022-12-18T00:23:30.954Z,32.90
2022-12-18T00:26:01.168Z,36.20
2022-12-18T00:28:29.154Z,34.67
2022-12-18T00:31:02.609Z,36.42
2022-12-18T00:33:31.938Z,34.30
2022-12-18T00:36:03.020Z,33.93
2022-12-18T00:38:30.758Z,35.43
2022-12-18T00:40:58.401Z,34.93
2022-12-18T00:43:25.225Z,32.13
2022-12-18T00:45:52.985Z,33.80
2022-12-18T00:48:20.898Z,34.13
2022-12-18T00:50:51.406Z,34.97
2022-12-18T00:53:19.351Z,33.00
2022-12-18T00:55:47.954Z,34.33
2022-12-18T00:58:18.257Z,34.17
2022-12-18T01:00:46.011Z,31.80
2022-12-18T01:03:16.007Z,35.40
2022-12-18T01:05:44.434Z,34.93
2022-12-18T01:08:13.534Z,33.38
2022-12-18T01:10:42.798Z,34.60
2022-12-18T01:13:10.423Z,34.70
2022-12-18T01:15:38.081Z,33.80
2022-12-18T01:18:05.712Z,32.97
2022-12-18T01:20:33.425Z,31.90
2022-12-18T01:23:01.075Z,32.13
2022-12-18T01:25:30.206Z,34.67
2022-12-18T01:27:57.947Z,32.30
2022-12-18T01:30:25.726Z,36.10
2022-12-18T01:32:53.307Z,31.47
2022-12-18T01:35:21.074Z,32.87
2022-12-18T01:37:48.688Z,33.43
2022-12-18T01:40:16.333Z,31.87
2022-12-18T01:42:45.347Z,32.43
2022-12-18T01:45:34.404Z,32.20
2022-12-18T01:48:05.272Z,32.27
2022-12-18T01:50:36.440Z,34.10
2022-12-18T01:53:07.634Z,34.63
2022-12-18T01:55:40.774Z,33.17
2022-12-18T01:58:09.864Z,33.47
2022-12-18T02:00:37.584Z,36.77
2022-12-18T02:03:05.210Z,33.70
2022-12-18T02:05:46.134Z,31.53
2022-12-18T02:08:20.044Z,32.97
2022-12-18T02:10:55.207Z,31.60
2022-12-18T02:13:34.296Z,33.53
2022-12-18T02:16:10.171Z,31.37
2022-12-18T02:18:40.301Z,31.83
2022-12-18T02:21:15.101Z,32.43
2022-12-18T02:23:50.189Z,30.30
2022-12-18T02:26:24.084Z,31.13
2022-12-18T02:28:55.907Z,29.97
2022-12-18T02:31:28.683Z,30.83
2022-12-18T02:34:00.416Z,30.40
2022-12-18T02:36:31.004Z,31.67
2022-12-18T02:38:59.932Z,33.00
2022-12-18T02:44:00.316Z,31.83
2022-12-18T02:46:33.091Z,33.60
2022-12-18T02:49:11.011Z,32.87
2022-12-18T02:51:49.074Z,33.45
2022-12-18T02:54:27.274Z,33.78
2022-12-18T02:56:59.869Z,31.95
2022-12-18T02:59:36.188Z,35.43
2022-12-18T03:02:09.519Z,34.93
2022-12-18T03:04:44.643Z,31.50
2022-12-18T03:07:20.422Z,31.83
2022-12-18T03:09:52.101Z,32.93
2022-12-18T03:12:25.742Z,33.63
2022-12-18T03:15:00.108Z,32.17
2022-12-18T03:17:29.735Z,31.30
2022-12-18T03:20:01.916Z,30.17
2022-12-18T03:22:33.987Z,31.33
2022-12-18T03:25:04.889Z,29.93
2022-12-18T03:27:38.134Z,30.50
2022-12-18T03:30:09.211Z,30.83
2022-12-18T03:32:43.484Z,30.53
2022-12-18T03:35:15.384Z,31.43
2022-12-18T03:37:43.111Z,31.47
2022-12-18T03:40:11.689Z,29.90
2022-12-18T03:42:48.781Z,30.30
2022-12-18T03:45:22.728Z,30.97
2022-12-18T03:48:00.338Z,29.63
2022-12-18T03:50:38.074Z,30.63
2022-12-18T03:53:19.201Z,29.40
2022-12-18T03:55:47.761Z,30.37
2022-12-18T03:58:21.259Z,29.83
2022-12-18T04:00:52.274Z,30.10
2022-12-18T04:03:26.155Z,30.52
2022-12-18T04:05:56.186Z,30.60
2022-12-18T04:08:24.930Z,29.90
2022-12-18T04:10:52.629Z,29.35
2022-12-18T04:13:25.882Z,28.83
2022-12-18T04:15:53.955Z,29.63
2022-12-18T04:18:21.617Z,30.55
2022-12-18T04:20:49.347Z,30.70
2022-12-18T04:23:16.965Z,28.15
2022-12-18T04:25:44.672Z,28.47
2022-12-18T04:28:12.327Z,27.77
2022-12-18T04:30:41.422Z,27.90
2022-12-18T04:33:10.966Z,26.35
2022-12-18T04:35:38.573Z,27.65
2022-12-18T04:38:07.454Z,28.98
2022-12-18T04:43:02.597Z,25.65
2022-12-18T04:45:30.464Z,26.00
2022-12-18T04:48:00.465Z,27.33
2022-12-18T04:50:28.303Z,27.60
2022-12-18T04:52:56.004Z,26.27
2022-12-18T04:55:26.833Z,25.48
2022-12-18T04:57:54.646Z,26.08
2022-12-18T05:00:22.935Z,25.70
2022-12-18T05:02:50.674Z,25.15
2022-12-18T05:05:20.134Z,24.05
2022-12-18T05:07:47.796Z,23.40
2022-12-18T05:10:15.461Z,23.15
2022-12-18T05:12:57.051Z,22.73
2022-12-18T05:15:24.707Z,23.15
2022-12-18T05:17:52.344Z,23.52
2022-12-18T05:20:21.431Z,24.02
2022-12-18T05:22:49.224Z,22.95
2022-12-18T05:25:16.999Z,22.52
2022-12-18T05:27:44.617Z,23.15
2022-12-18T05:30:13.228Z,23.40
2022-12-18T05:32:41.624Z,23.90
2022-12-18T05:35:11.506Z,23.05
2022-12-18T05:37:43.141Z,22.70
2022-12-18T05:40:12.927Z,22.08
2022-12-18T05:42:40.774Z,20.98
2022-12-18T05:45:09.447Z,20.77
2022-12-18T05:47:37.043Z,20.55
2022-12-18T05:50:05.230Z,21.77
2022-12-18T05:52:32.859Z,21.30
2022-12-18T05:55:01.809Z,22.67
2022-12-18T05:57:29.507Z,21.02
2022-12-18T05:59:57.101Z,21.83
2022-12-18T06:02:24.853Z,21.02
2022-12-18T06:04:52.651Z,21.35
2022-12-18T06:07:20.247Z,21.05
2022-12-18T06:09:47.934Z,20.15
2022-12-18T06:12:16.879Z,19.50
2022-12-18T06:14:44.475Z,20.67
2022-12-18T06:17:12.059Z,19.73
2022-12-18T06:19:39.850Z,21.60
2022-12-18T06:22:07.444Z,20.52
2022-12-18T06:24:35.179Z,20.10
2022-12-18T06:27:03.312Z,19.63
2022-12-18T06:29:32.321Z,19.40
2022-12-18T06:31:59.946Z,18.08
2022-12-18T06:34:27.891Z,18.67
2022-12-18T06:36:55.551Z,19.58
2022-12-18T06:39:23.140Z,19.77
2022-12-18T06:41:50.721Z,18.55
2022-12-18T06:44:18.426Z,19.23
2022-12-18T06:46:47.543Z,19.63
2022-12-18T06:49:15.228Z,19.02
2022-12-18T06:51:43.491Z,18.85
2022-12-18T06:54:11.138Z,18.77
2022-12-18T06:56:38.754Z,18.00
2022-12-18T06:59:06.333Z,18.35
2022-12-18T07:01:34.058Z,17.77
2022-12-18T07:04:03.172Z,17.10
2022-12-18T07:06:30.788Z,18.38
2022-12-18T07:08:58.491Z,17.60
2022-12-18T07:11:26.519Z,17.75
2022-12-18T07:13:55.340Z,18.10
2022-12-18T07:18:53.609Z,17.45
2022-12-18T07:21:24.112Z,17.77
2022-12-18T07:23:51.853Z,16.63
2022-12-18T07:26:22.279Z,16.58
2022-12-18T07:28:50.293Z,16.65
2022-12-18T07:31:19.952Z,18.25
2022-12-18T07:33:49.901Z,17.73
2022-12-18T07:36:17.864Z,16.15
2022-12-18T07:38:48.877Z,16.52
2022-12-18T07:41:16.592Z,16.48
2022-12-18T07:43:44.536Z,16.42
2022-12-18T07:46:14.769Z,16.95
2022-12-18T07:48:42.934Z,20.23
2022-12-18T07:51:15.257Z,29.67
2022-12-18T07:53:43.944Z,27.23
2022-12-18T07:56:31.168Z,40.60
2022-12-18T07:58:59.975Z,32.42
2022-12-18T08:01:28.168Z,32.05
2022-12-18T08:03:56.299Z,35.17
2022-12-18T08:06:24.762Z,36.53
2022-12-18T08:08:53.609Z,32.13
2022-12-18T08:11:22.763Z,25.85
2022-12-18T08:13:50.385Z,22.67
2022-12-18T08:16:19.112Z,19.48
2022-12-18T08:18:47.952Z,18.38
2022-12-18T08:21:17.823Z,17.75
2022-12-18T08:23:45.938Z,17.30
2022-12-18T08:26:13.913Z,17.63
2022-12-18T08:28:43.348Z,16.90
2022-12-18T08:31:11.382Z,16.92
2022-12-18T08:33:41.026Z,18.40
2022-12-18T08:36:11.441Z,17.10
2022-12-18T08:38:39.175Z,15.93
2022-12-18T08:41:09.507Z,16.58
2022-12-18T08:43:54.957Z,16.65
2022-12-18T08:46:26.074Z,22.52
2022-12-18T08:48:54.990Z,20.10
2022-12-18T08:53:50.386Z,19.48
2022-12-18T08:56:18.447Z,21.45
2022-12-18T08:58:46.146Z,20.65
2022-12-18T09:01:15.022Z,23.75
2022-12-18T09:03:44.664Z,21.87
2022-12-18T09:06:16.569Z,17.27
2022-12-18T09:08:44.630Z,17.15
2022-12-18T09:11:18.314Z,16.92
2022-12-18T09:13:45.992Z,18.13
2022-12-18T09:16:14.240Z,16.53
2022-12-18T09:18:42.460Z,14.88
2022-12-18T09:21:13.916Z,16.33
2022-12-18T09:23:41.812Z,15.93
2022-12-18T09:26:09.670Z,16.27
2022-12-18T09:28:37.577Z,17.17
2022-12-18T09:31:08.660Z,16.73
2022-12-18T09:33:37.028Z,16.17
2022-12-18T09:36:08.135Z,16.15
2022-12-18T09:38:37.829Z,15.63
2022-12-18T09:41:16.654Z,15.60
2022-12-18T09:43:49.219Z,15.85
2022-12-18T09:46:21.507Z,17.43
2022-12-18T09:48:53.234Z,16.63
2022-12-18T09:51:30.677Z,17.10
2022-12-18T09:54:04.814Z,15.13
2022-12-18T09:56:39.724Z,17.40
2022-12-18T09:59:07.593Z,15.47
2022-12-18T10:01:43.241Z,17.27
2022-12-18T10:04:12.276Z,17.70
2022-12-18T10:06:48.214Z,17.60
2022-12-18T10:09:27.223Z,17.67
2022-12-18T10:12:04.552Z,15.70
2022-12-18T10:14:42.958Z,16.07
2022-12-18T10:17:20.718Z,13.90
2022-12-18T10:19:52.620Z,15.53
2022-12-18T10:22:30.351Z,15.53
2022-12-18T10:25:05.559Z,14.10
2022-12-18T10:27:34.601Z,15.60
2022-12-18T10:30:03.327Z,15.23
2022-12-18T10:32:32.723Z,15.70
2022-12-18T10:35:01.245Z,15.10
2022-12-18T10:37:31.469Z,14.95
2022-12-18T10:40:21.789Z,15.77
2022-12-18T10:43:13.250Z,14.93
2022-12-18T10:45:41.432Z,14.17
2022-12-18T10:48:21.082Z,13.95
2022-12-18T10:53:43.542Z,13.70
2022-12-18T10:56:12.939Z,14.20
2022-12-18T10:58:41.701Z,14.17
2022-12-18T11:01:12.857Z,15.37
2022-12-18T11:03:42.534Z,13.90
2022-12-18T11:06:12.674Z,15.47
2022-12-18T11:08:41.160Z,14.73
2022-12-18T11:11:22.380Z,13.63
2022-12-18T11:14:17.873Z,14.27
2022-12-18T11:17:23.741Z,13.40
2022-12-18T11:19:40.656Z,14.13
2022-12-18T11:22:22.270Z,15.03
2022-12-18T11:25:29.492Z,13.43
2022-12-18T11:27:50.601Z,11.87
2022-12-18T11:30:24.597Z,14.60
2022-12-18T11:32:55.180Z,13.67
2022-12-18T11:35:30.036Z,13.73
2022-12-18T11:38:06.621Z,13.17
2022-12-18T11:40:41.104Z,13.77
2022-12-18T11:43:15.228Z,14.07
2022-12-18T11:45:49.411Z,14.13
2022-12-18T11:48:20.574Z,13.37
2022-12-18T11:50:52.172Z,12.90
2022-12-18T11:53:20.700Z,14.57
2022-12-18T11:56:00.041Z,14.52
2022-12-18T11:58:46.902Z,20.57
2022-12-18T12:01:29.466Z,18.33
2022-12-18T12:04:26.951Z,26.63
2022-12-18T12:07:05.959Z,24.17
2022-12-18T12:09:40.727Z,14.77
2022-12-18T12:12:22.411Z,13.90
2022-12-18T12:15:03.315Z,17.43
2022-12-18T12:17:38.368Z,20.00
2022-12-18T12:20:16.235Z,17.57
2022-12-18T12:22:51.244Z,13.52
2022-12-18T12:25:30.702Z,13.30
2022-12-18T12:28:07.533Z,14.77
2022-12-18T12:30:47.770Z,14.27
2022-12-18T12:33:29.447Z,14.50
2022-12-18T12:36:10.406Z,15.77
2022-12-18T12:38:49.829Z,15.23
2022-12-18T12:41:43.206Z,13.87
2022-12-18T12:44:18.636Z,15.23
2022-12-18T12:46:49.770Z,13.73
2022-12-18T12:49:21.369Z,13.63
2022-12-18T12:51:59.058Z,13.87
2022-12-18T12:54:28.670Z,13.40
2022-12-18T12:57:04.265Z,12.83
2022-12-18T12:59:40.978Z,13.13
2022-12-18T13:02:20.101Z,12.97
2022-12-18T13:04:54.390Z,13.17
2022-12-18T13:07:28.732Z,14.07
2022-12-18T13:10:27.384Z,12.60
2022-12-18T13:12:59.977Z,14.38
2022-12-18T13:15:33.761Z,12.67
2022-12-18T13:18:21.004Z,12.03
2022-12-18T13:20:55.294Z,13.17
2022-12-18T13:23:37.162Z,12.30
2022-12-18T13:26:38.364Z,13.23
2022-12-18T13:29:06.977Z,13.87
2022-12-18T13:32:01.696Z,13.65
2022-12-18T13:34:32.974Z,13.87
2022-12-18T13:37:34.493Z,14.17
2022-12-18T13:40:02.151Z,14.80
2022-12-18T13:43:00.319Z,14.47
2022-12-18T13:45:47.474Z,12.40
2022-12-18T13:48:21.171Z,14.43
2022-12-18T13:50:55.664Z,13.80
2022-12-18T13:53:28.063Z,13.23
2022-12-18T13:55:56.073Z,13.43
2022-12-18T13:58:24.366Z,12.65
2022-12-18T14:00:52.363Z,13.88
2022-12-18T14:03:23.477Z,13.17
2022-12-18T14:05:58.767Z,13.57
2022-12-18T14:08:29.490Z,13.90
2022-12-18T14:10:57.382Z,13.83
2022-12-18T14:13:29.944Z,12.93
2022-12-18T14:15:59.528Z,13.23
2022-12-18T14:18:35.869Z,14.10
2022-12-18T14:21:06.099Z,14.73
2022-12-18T14:23:36.642Z,14.00
2022-12-18T14:26:20.964Z,13.47
2022-12-18T14:28:48.830Z,13.50
2022-12-18T14:31:20.509Z,13.10
2022-12-18T14:33:48.332Z,12.17
2022-12-18T14:36:21.271Z,12.70
2022-12-18T14:38:52.713Z,13.50
2022-12-18T14:41:21.758Z,12.87
2022-12-18T14:43:51.369Z,13.50
2022-12-18T14:46:32.124Z,13.20
2022-12-18T14:49:00.501Z,13.30
2022-12-18T14:51:31.774Z,13.70
2022-12-18T14:54:01.325Z,13.53
2022-12-18T14:56:31.061Z,13.70
2022-12-18T14:59:00.251Z,13.27
2022-12-18T15:01:30.985Z,14.10
2022-12-18T15:04:00.468Z,13.47
2022-12-18T15:06:33.024Z,13.93
2022-12-18T15:09:01.294Z,13.17
2022-12-18T15:11:38.157Z,13.93
2022-12-18T15:14:26.467Z,14.00
2022-12-18T15:16:56.079Z,14.65
2022-12-18T15:19:28.380Z,15.07
2022-12-18T15:22:00.248Z,15.97
2022-12-18T15:24:34.519Z,15.90
2022-12-18T15:27:02.745Z,14.97
2022-12-18T15:29:30.365Z,15.27
2022-12-18T15:32:04.300Z,14.10
2022-12-18T15:34:33.144Z,17.20
2022-12-18T15:37:02.171Z,18.00
2022-12-18T15:39:30.309Z,15.97
2022-12-18T15:42:15.402Z,15.50
2022-12-18T15:44:43.109Z,14.87
2022-12-18T15:47:13.853Z,14.70
2022-12-18T15:49:41.623Z,14.00
2022-12-18T15:52:15.233Z,14.53
2022-12-18T15:54:56.838Z,14.67
2022-12-18T15:57:27.805Z,14.30
2022-12-18T15:59:59.006Z,15.87
2022-12-18T16:02:28.745Z,15.03
2022-12-18T16:04:56.567Z,14.30
2022-12-18T16:07:28.204Z,14.30
2022-12-18T16:09:58.894Z,14.33
2022-12-18T16:12:27.983Z,15.27
2022-12-18T16:14:55.642Z,15.10
2022-12-18T16:17:23.314Z,15.77
2022-12-18T16:19:50.967Z,15.90
2022-12-18T16:22:23.159Z,15.27
2022-12-18T16:24:53.649Z,15.17
2022-12-18T16:27:21.654Z,14.83
2022-12-18T16:29:49.322Z,14.45
2022-12-18T16:32:19.315Z,14.37
2022-12-18T16:34:47.820Z,15.47
2022-12-18T16:37:16.913Z,13.27
2022-12-18T16:39:45.108Z,14.67
2022-12-18T16:42:17.437Z,15.88
2022-12-18T16:44:46.486Z,14.57
2022-12-18T16:49:43.411Z,13.63
2022-12-18T16:52:11.078Z,15.50
2022-12-18T16:54:38.741Z,14.80
2022-12-18T16:57:06.484Z,14.50
2022-12-18T16:59:35.670Z,15.30
2022-12-18T17:02:06.879Z,16.27
2022-12-18T17:04:34.813Z,15.17
2022-12-18T17:07:02.647Z,16.00
2022-12-18T17:09:30.332Z,15.13
2022-12-18T17:11:57.944Z,16.47
2022-12-18T17:14:26.340Z,16.37
2022-12-18T17:17:20.338Z,16.67
2022-12-18T17:19:44.619Z,16.17
2022-12-18T17:22:12.339Z,16.57
2022-12-18T17:24:39.925Z,15.83
2022-12-18T17:27:08.787Z,17.87
2022-12-18T17:32:05.873Z,18.60
2022-12-18T17:34:33.518Z,16.50
2022-12-18T17:37:01.203Z,16.27
2022-12-18T17:39:30.651Z,16.30
2022-12-18T17:41:59.402Z,16.87
2022-12-18T17:44:27.088Z,17.13
2022-12-18T17:46:54.740Z,17.80
2022-12-18T17:49:23.876Z,16.83
2022-12-18T17:51:51.506Z,17.77
2022-12-18T17:54:19.233Z,17.10
2022-12-18T17:56:47.214Z,16.27
2022-12-18T17:59:15.616Z,17.08
2022-12-18T18:01:45.180Z,17.75
2022-12-18T18:04:13.711Z,16.53
2022-12-18T18:06:42.800Z,16.23
2022-12-18T18:11:58.834Z,16.40
2022-12-18T18:14:27.090Z,16.70
2022-12-18T18:16:55.802Z,17.00
2022-12-18T18:19:25.812Z,18.07
2022-12-18T18:21:54.856Z,16.45
2022-12-18T18:24:25.753Z,16.73
2022-12-18T18:26:53.609Z,17.70
2022-12-18T18:29:23.341Z,17.80
2022-12-18T18:31:51.593Z,19.20
2022-12-18T18:34:24.113Z,18.45
2022-12-18T18:36:51.834Z,18.07
2022-12-18T18:39:21.053Z,18.07
2022-12-18T18:41:49.039Z,18.30
2022-12-18T18:44:17.136Z,18.77
2022-12-18T18:46:45.109Z,16.95
2022-12-18T18:49:13.663Z,17.20
2022-12-18T18:51:41.328Z,17.63
2022-12-18T18:54:09.621Z,17.47
2022-12-18T18:57:11.725Z,17.63
2022-12-18T18:59:31.595Z,17.00
2022-12-18T19:02:00.681Z,18.13
2022-12-18T19:04:32.320Z,18.80
2022-12-18T19:06:59.943Z,17.57
2022-12-18T19:09:28.724Z,16.73
2022-12-18T19:12:15.921Z,16.83
2022-12-18T19:14:43.587Z,16.77
2022-12-18T19:17:11.354Z,17.40
2022-12-18T19:19:39.488Z,18.63
2022-12-18T19:22:07.769Z,16.75
2022-12-18T19:24:36.503Z,18.42
2022-12-18T19:27:05.760Z,17.73
2022-12-18T19:29:33.487Z,17.13
2022-12-18T19:32:01.599Z,16.97
2022-12-18T19:34:29.292Z,19.13
2022-12-18T19:36:59.701Z,19.57
2022-12-18T19:39:27.851Z,18.47
2022-12-18T19:41:55.606Z,23.87
2022-12-18T19:44:24.629Z,19.83
2022-12-18T19:46:52.443Z,19.83
2022-12-18T19:49:23.024Z,20.83
2022-12-18T19:51:50.795Z,21.93
2022-12-18T19:54:18.737Z,22.07
2022-12-18T19:56:46.693Z,19.47
2022-12-18T19:59:15.147Z,24.75
2022-12-18T20:01:44.328Z,24.02
2022-12-18T20:04:12.059Z,22.23
2022-12-18T20:06:49.814Z,20.73
2022-12-18T20:09:18.313Z,23.05
2022-12-18T20:11:46.929Z,23.70
2022-12-18T20:14:19.656Z,22.07
2022-12-18T20:16:53.449Z,22.77
2022-12-18T20:19:22.353Z,25.00
2022-12-18T20:21:50.186Z,24.75
2022-12-18T20:24:17.857Z,23.37
2022-12-18T20:26:45.543Z,23.03
2022-12-18T20:29:13.124Z,24.70
2022-12-18T20:31:41.448Z,27.10
2022-12-18T20:34:10.562Z,26.52
2022-12-18T20:36:38.641Z,24.67
2022-12-18T20:39:09.927Z,22.80
2022-12-18T20:41:39.426Z,25.47
2022-12-18T20:44:17.999Z,25.33
2022-12-18T20:46:51.828Z,24.30
2022-12-18T20:49:20.848Z,26.77
2022-12-18T20:51:51.248Z,24.50
2022-12-18T20:54:18.876Z,25.20
2022-12-18T20:56:46.421Z,25.47
2022-12-18T20:59:14.049Z,25.00
2022-12-18T21:01:45.173Z,24.43
2022-12-18T21:04:18.537Z,25.87
2022-12-18T21:06:52.971Z,27.70
2022-12-18T21:09:24.013Z,27.03
2022-12-18T21:12:10.371Z,26.92
2022-12-18T21:14:42.058Z,25.30
2022-12-18T21:17:09.683Z,27.37
2022-12-18T21:19:37.777Z,29.43
2022-12-18T21:22:07.137Z,27.55
2022-12-18T21:24:34.831Z,30.83
2022-12-18T21:27:02.584Z,31.70
2022-12-18T21:29:30.377Z,28.60
2022-12-18T21:31:58.386Z,32.00
2022-12-18T21:34:27.534Z,28.70
2022-12-18T21:36:57.247Z,32.47
2022-12-18T21:39:27.041Z,30.90
2022-12-18T21:42:12.490Z,28.63
2022-12-18T21:44:41.939Z,28.50
2022-12-18T21:47:20.851Z,31.10
2022-12-18T21:49:50.164Z,29.83
2022-12-18T21:52:17.760Z,29.27
2022-12-18T21:54:46.685Z,31.93
2022-12-18T21:59:44.262Z,29.23
2022-12-18T22:02:14.743Z,29.10
2022-12-18T22:04:42.602Z,30.53
2022-12-18T22:07:11.354Z,29.35
2022-12-18T22:09:39.446Z,32.10
2022-12-18T22:12:09.146Z,30.38
2022-12-18T22:14:36.864Z,31.57
2022-12-18T22:17:04.494Z,34.47
2022-12-18T22:19:36.743Z,28.60
2022-12-18T22:22:08.778Z,33.47
2022-12-18T22:24:36.397Z,32.40
2022-12-18T22:27:04.114Z,31.83
2022-12-18T22:29:50.714Z,33.17
2022-12-18T22:32:30.647Z,35.43
2022-12-18T22:35:04.541Z,36.13
2022-12-18T22:37:33.817Z,34.90
2022-12-18T22:40:03.052Z,35.23
2022-12-18T22:42:32.150Z,33.80
2022-12-18T22:45:01.249Z,34.88
2022-12-18T22:47:30.471Z,34.60
2022-12-18T22:49:58.572Z,36.03
2022-12-18T22:52:26.615Z,36.70
2022-12-18T22:54:54.582Z,37.47
2022-12-18T22:57:22.570Z,34.38
2022-12-18T22:59:50.396Z,33.63
2022-12-18T23:02:20.124Z,43.10
2022-12-18T23:04:48.214Z,37.03
2022-12-18T23:07:15.952Z,34.27
2022-12-18T23:09:44.848Z,40.30
2022-12-18T23:12:16.388Z,34.80
2022-12-18T23:14:44.777Z,38.17
2022-12-18T23:17:12.409Z,34.35
2022-12-18T23:19:47.101Z,35.10
2022-12-18T23:22:16.325Z,34.50
2022-12-18T23:24:44.138Z,34.10
2022-12-18T23:27:12.322Z,38.63
2022-12-18T23:29:40.104Z,35.85
2022-12-18T23:32:07.944Z,41.10
2022-12-18T23:34:35.624Z,36.27
2022-12-18T23:37:04.671Z,37.87
2022-12-18T23:39:32.402Z,41.97
2022-12-18T23:42:00.760Z,34.47
2022-12-18T23:44:28.983Z,36.15
2022-12-18T23:46:56.983Z,37.90
2022-12-18T23:49:24.817Z,43.70
2022-12-18T23:51:54.789Z,45.00
2022-12-18T23:54:32.762Z,39.13
2022-12-18T23:57:01.328Z,37.03
2022-12-18T23:59:29.028Z,42.30
